Estación Meteorológica Peña el Pijo (Robertgarden) [ 02/03/23 03:20:26 CET ]

Fecha Hora Presion(HPa) Temp (°C) Humedad % Rocio (°C) Viento ( m/s) Direccion Lluvia 1Hora(mm) Lluvia 24H(mm) LLuvia Total(mm)
2012-Aug-17 01:01:17 1014.800 18.4 56 9.4         176.12
2012-Aug-17 02:01:14 1014.600 17.5 59 9.4         176.12
2012-Aug-17 03:01:49 1014.000 16.6 62 9.3         176.12
2012-Aug-17 04:03:19 1013.700 15.6 66 9.3         176.12
2012-Aug-17 05:01:17 1013.300 14.9 68 9.0         176.12
2012-Aug-17 06:01:13 1012.800 14.7 70 9.3         176.12
2012-Aug-17 07:01:15 1012.700 14.6 70 9.2         176.12
2012-Aug-17 08:01:15 1012.500 14.8 72 9.8         176.12
2012-Aug-17 09:01:12 1012.900 20.4 60 12.4         176.12
2012-Aug-17 10:01:13 1013.000 25.4 46 12.9         176.12
2012-Aug-17 11:01:13 1013.400 30.9 30 11.3         176.12
2012-Aug-17 12:01:13 1013.400 35.9 15 4.5 2.5 NE     176.12
2012-Aug-17 13:01:12 1013.700 38.5 12 3.6         176.12
2012-Aug-17 14:01:17 1014.000 40.8 12 5.3 0.5 SSW     176.12
2012-Aug-17 15:01:16 1013.800 40.3 12 4.9 3.2 SW     176.12
2012-Aug-17 16:01:13 1013.300 38.5 13 4.6         176.12
2012-Aug-17 17:01:14 1012.700 40.2 10 2.8         176.12
2012-Aug-17 18:01:14 1012.800 39.1 - - 0.9 WNW     176.12
2012-Aug-17 19:01:12 1012.800 37.8 10 1.0         176.12
2012-Aug-17 20:01:13 1013.100 32.8 25 10.0         176.12
2012-Aug-17 21:01:13 1013.500 29.8 30 10.4         176.12
2012-Aug-17 22:01:16 1014.000 25.0 40 10.5         176.12
2012-Aug-17 23:01:14 1014.700 22.4 47 10.5         176.12

Temperatura Máxima:40°    Temperatura Mínima:14°
Presión Máxima:1014.800 Hpa    Presión Mínima:1012.500 Hpa


Volver